Terminal Aerodrome Forecast
Issued by NWS

Home | Current Version | Previous Version | Text Only | Print | Product List | Glossary On
Versions: 1 2 3 4 5 6 7 8 9 10 11 12 13 14 15 16 17 18 19 20 21 22 23 24 25 26 27 28 29 30 31 32 33 34 35
000
FTUS43 KDMX 242335
TAFMCW
TAF
KMCW 242335Z 2500/2524 13010KT 2SM BR OVC004
     FM250200 15009KT 5SM BR OVC009
     FM250600 19005KT 4SM -SHRA BR OVC007
     FM251100 24008KT 5SM BR OVC005
     FM251500 26014KT P6SM SCT014 BKN035=

USA.gov is the U.S. government's official web portal to all federal, state and local government web resources and services.